createdAt,value
2022-12-06T00:01:57.030Z,78.22
2022-12-06T00:06:54.864Z,78.07
2022-12-06T00:11:59.843Z,78.01
2022-12-06T00:16:58.972Z,77.98
2022-12-06T00:21:56.851Z,77.93
2022-12-06T00:27:03.304Z,77.91
2022-12-06T00:32:19.102Z,77.94
2022-12-06T00:37:33.948Z,78.04
2022-12-06T00:42:36.166Z,78.29
2022-12-06T00:47:41.750Z,77.94
2022-12-06T00:58:14.844Z,77.99
2022-12-06T01:03:34.952Z,78.23
2022-12-06T01:08:56.812Z,78.15
2022-12-06T01:19:39.359Z,77.73
2022-12-06T01:24:36.207Z,78.03
2022-12-06T01:29:39.579Z,77.89
2022-12-06T01:34:44.475Z,78.02
2022-12-06T01:39:47.295Z,77.95
2022-12-06T01:45:01.749Z,77.75
2022-12-06T01:50:11.367Z,77.91
2022-12-06T01:55:13.293Z,77.85
2022-12-06T02:00:16.947Z,77.83
2022-12-06T02:05:28.901Z,77.90
2022-12-06T02:29:54.268Z,77.70
2022-12-06T02:35:40.003Z,77.82
2022-12-06T02:40:41.951Z,77.55
2022-12-06T02:58:37.091Z,77.71
2022-12-06T03:10:11.353Z,77.79
2022-12-06T03:16:08.525Z,78.05
2022-12-06T03:27:04.084Z,78.13
2022-12-06T03:32:14.001Z,78.09
2022-12-06T03:37:21.552Z,78.02
2022-12-06T03:42:19.286Z,77.88
2022-12-06T03:48:09.665Z,77.80
2022-12-06T03:53:25.719Z,77.78
2022-12-06T04:04:11.525Z,77.98
2022-12-06T04:09:28.078Z,77.79
2022-12-06T04:14:34.748Z,77.89
2022-12-06T04:19:32.135Z,77.64
2022-12-06T04:24:30.336Z,77.89
2022-12-06T04:36:03.893Z,78.11
2022-12-06T04:41:00.479Z,78.03
2022-12-06T04:45:57.110Z,77.82
2022-12-06T04:50:54.587Z,77.96
2022-12-06T04:55:51.903Z,77.86
2022-12-06T05:38:22.512Z,77.44
2022-12-06T05:49:04.550Z,77.31
2022-12-06T06:01:02.223Z,77.91
2022-12-06T07:00:24.304Z,77.83
2022-12-06T08:04:10.377Z,77.64
2022-12-06T08:09:07.289Z,77.59
2022-12-06T08:14:04.969Z,77.43
2022-12-06T08:19:01.480Z,77.81
2022-12-06T08:23:58.092Z,77.71
2022-12-06T08:28:54.567Z,77.53
2022-12-06T08:33:51.093Z,77.72
2022-12-06T08:38:47.866Z,77.40
2022-12-06T08:43:45.376Z,77.28
2022-12-06T08:48:43.593Z,77.47
2022-12-06T11:29:43.118Z,75.90
2022-12-06T11:34:44.768Z,76.02
2022-12-06T15:27:36.578Z,73.68
2022-12-06T16:15:53.342Z,72.48
2022-12-06T16:20:53.949Z,72.68
2022-12-06T16:25:53.979Z,72.49
2022-12-06T16:35:57.434Z,72.41
2022-12-06T17:36:58.962Z,72.26
2022-12-06T17:42:15.828Z,72.15
2022-12-06T17:47:12.330Z,71.90
2022-12-06T17:52:13.503Z,72.02
2022-12-06T17:57:16.094Z,72.17
2022-12-06T18:02:15.856Z,72.00
2022-12-06T18:07:19.750Z,71.78
2022-12-06T18:12:17.792Z,71.81
2022-12-06T18:17:14.320Z,71.75
2022-12-06T18:27:37.364Z,71.63
2022-12-06T18:32:35.126Z,71.43
2022-12-06T18:43:49.503Z,71.28
2022-12-06T18:48:53.766Z,71.16
2022-12-06T18:53:51.896Z,71.53
2022-12-06T18:58:51.057Z,71.30
2022-12-06T19:03:49.380Z,71.54
2022-12-06T19:08:46.173Z,71.67
2022-12-06T19:13:42.768Z,71.54
2022-12-06T19:18:39.563Z,71.37
2022-12-06T19:23:38.589Z,71.30
2022-12-06T19:33:54.799Z,71.52
2022-12-06T19:39:03.224Z,71.41
2022-12-06T19:44:16.285Z,71.61
2022-12-06T19:49:16.288Z,71.58
2022-12-06T19:54:28.766Z,71.81
2022-12-06T19:59:36.074Z,71.92
2022-12-06T20:04:37.958Z,72.12
2022-12-06T20:09:34.949Z,71.85
2022-12-06T20:14:38.892Z,71.98
2022-12-06T20:19:38.945Z,72.14
2022-12-06T20:24:35.750Z,72.25
2022-12-06T20:29:40.350Z,71.75
2022-12-06T20:34:40.136Z,71.79
2022-12-06T20:39:39.309Z,71.44
2022-12-06T20:44:39.824Z,71.37
2022-12-06T20:49:49.905Z,71.54
2022-12-06T20:54:53.741Z,71.44
2022-12-06T20:59:52.687Z,71.64
2022-12-06T21:04:52.661Z,71.39
2022-12-06T21:09:51.530Z,71.28
2022-12-06T21:14:48.119Z,71.70
2022-12-06T21:19:50.883Z,71.54
2022-12-06T21:24:47.371Z,71.81
2022-12-06T21:30:04.597Z,71.85
2022-12-06T21:35:01.071Z,71.52
2022-12-06T21:40:07.505Z,71.66
2022-12-06T22:31:48.204Z,72.37
2022-12-06T22:42:08.881Z,72.48
2022-12-06T23:02:41.917Z,73.25
2022-12-06T23:07:40.940Z,73.48
2022-12-06T23:12:55.974Z,73.50
2022-12-06T23:17:58.567Z,73.53
2022-12-06T23:22:59.957Z,73.59
2022-12-06T23:33:36.700Z,73.92
2022-12-06T23:39:00.331Z,74.07
2022-12-06T23:59:45.822Z,74.25
